Time;durP1;ratioP1;P1;durP2;ratioP2;P2;SDS_P1;SDS_P2;PMS_P1;PMS_P2;Temp;Humidity;BMP_temperature;BMP_pressure;BME280_temperature;BME280_humidity;BME280_pressure;Samples;Min_cycle;Max_cycle;Signal;HPM_P1;HPM_P2
2023/05/22 00:00:43;;;;;;;14.10;11.68;;;19.70;83.70;;;;;;5072184;28;20033;-70
2023/05/22 00:03:09;;;;;;;14.45;12.07;;;19.60;83.80;;;;;;5064198;28;20928;-69
2023/05/22 00:05:37;;;;;;;16.95;13.43;;;19.60;83.90;;;;;;5070472;28;20109;-71
2023/05/22 00:08:05;;;;;;;14.52;11.57;;;19.50;84.50;;;;;;5072595;28;20017;-70
2023/05/22 00:10:30;;;;;;;14.20;12.55;;;19.50;84.60;;;;;;5074004;28;20032;-70
2023/05/22 00:12:56;;;;;;;16.02;13.05;;;19.50;84.90;;;;;;5071732;28;20036;-70
2023/05/22 00:15:22;;;;;;;15.85;12.82;;;19.40;85.50;;;;;;5072260;28;20031;-70
2023/05/22 00:17:47;;;;;;;13.50;11.10;;;19.30;85.50;;;;;;5077654;28;20017;-71
2023/05/22 00:20:13;;;;;;;15.52;11.45;;;19.30;85.60;;;;;;5072110;28;20028;-70
2023/05/22 00:22:38;;;;;;;14.77;11.57;;;19.30;85.40;;;;;;5083198;28;20031;-69
2023/05/22 00:25:05;;;;;;;14.07;11.80;;;19.30;85.50;;;;;;5069523;28;20027;-70
2023/05/22 00:27:34;;;;;;;18.83;12.90;;;19.20;85.60;;;;;;5077994;28;20024;-70
2023/05/22 00:30:00;;;;;;;14.45;11.35;;;19.10;86.50;;;;;;5072602;28;20644;-70
2023/05/22 00:32:25;;;;;;;14.18;10.98;;;19.00;86.10;;;;;;5079063;28;20024;-70
2023/05/22 00:34:51;;;;;;;13.52;10.75;;;18.90;86.30;;;;;;5084390;28;20024;-71
2023/05/22 00:37:18;;;;;;;11.65;9.23;;;18.80;86.40;;;;;;5081259;28;20077;-70
2023/05/22 00:39:45;;;;;;;12.98;10.07;;;18.70;86.30;;;;;;5070102;28;20025;-70
2023/05/22 00:42:11;;;;;;;14.45;10.70;;;18.70;86.40;;;;;;5068996;28;20028;-70
2023/05/22 00:44:36;;;;;;;14.30;10.50;;;18.70;86.60;;;;;;5069462;28;20411;-70
2023/05/22 00:47:02;;;;;;;13.57;10.98;;;18.60;86.60;;;;;;5081046;28;20055;-70
2023/05/22 00:49:28;;;;;;;14.93;11.60;;;18.60;86.80;;;;;;5079590;28;20029;-70
2023/05/22 00:51:54;;;;;;;14.73;11.73;;;18.60;87.00;;;;;;5069669;28;20032;-71
2023/05/22 00:54:20;;;;;;;14.65;11.88;;;18.50;87.20;;;;;;5069844;28;20032;-70
2023/05/22 00:56:46;;;;;;;16.13;12.48;;;18.50;87.40;;;;;;5071659;28;20077;-69
2023/05/22 00:59:12;;;;;;;17.73;11.50;;;18.40;87.70;;;;;;5073097;28;20025;-70
2023/05/22 01:01:40;;;;;;;16.42;11.82;;;18.30;87.80;;;;;;5074551;28;20475;-70
2023/05/22 01:04:09;;;;;;;18.08;12.73;;;18.30;88.00;;;;;;5073383;28;20033;-70
2023/05/22 01:06:35;;;;;;;16.10;11.68;;;18.30;88.30;;;;;;5073435;28;20070;-70
2023/05/22 01:09:00;;;;;;;14.45;11.45;;;18.20;88.40;;;;;;5087393;28;20028;-70
2023/05/22 01:11:51;;;;;;;13.85;11.25;;;18.20;88.40;;;;;;5084062;28;20026;-70
2023/05/22 01:14:35;;;;;;;12.95;10.60;;;18.20;88.50;;;;;;5091948;28;20020;-69
2023/05/22 01:17:07;;;;;;;13.02;11.07;;;18.20;88.40;;;;;;5084393;28;20078;-68
2023/05/22 01:19:52;;;;;;;13.18;10.60;;;18.20;88.40;;;;;;5073093;28;20032;-69
2023/05/22 01:22:31;;;;;;;13.60;11.15;;;18.20;88.40;;;;;;5080581;28;20085;-69
2023/05/22 01:25:27;;;;;;;14.82;10.82;;;18.20;88.40;;;;;;5072620;28;20063;-70
2023/05/22 01:28:26;;;;;;;12.88;10.60;;;18.20;88.30;;;;;;5083750;28;20032;-70
2023/05/22 01:31:02;;;;;;;15.57;11.40;;;18.20;88.50;;;;;;5084850;28;20029;-69
2023/05/22 01:33:34;;;;;;;14.82;10.35;;;18.20;88.40;;;;;;5064513;28;20024;-70
2023/05/22 01:36:01;;;;;;;12.07;9.57;;;18.20;88.40;;;;;;5072112;28;20406;-70
2023/05/22 01:38:27;;;;;;;14.05;10.50;;;18.20;88.30;;;;;;5071334;28;20490;-71
2023/05/22 01:40:55;;;;;;;17.00;13.10;;;18.20;88.30;;;;;;5079656;28;20028;-72
2023/05/22 01:43:20;;;;;;;16.20;11.50;;;18.20;88.30;;;;;;5091849;28;20070;-71
2023/05/22 01:45:46;;;;;;;17.15;13.65;;;18.20;88.40;;;;;;5092760;28;20020;-71
2023/05/22 01:48:12;;;;;;;15.63;11.70;;;18.20;88.60;;;;;;5089918;28;20027;-72
2023/05/22 01:50:38;;;;;;;16.35;12.18;;;18.10;88.70;;;;;;5070917;28;20055;-73
2023/05/22 01:53:13;;;;;;;14.38;10.90;;;18.10;88.80;;;;;;5073133;28;20098;-72
2023/05/22 01:55:54;;;;;;;12.85;9.68;;;18.10;88.90;;;;;;5073245;28;20126;-71
2023/05/22 01:59:00;;;;;;;13.07;10.45;;;18.10;88.70;;;;;;5083397;28;20107;-72
2023/05/22 02:01:28;;;;;;;12.95;9.90;;;18.10;88.60;;;;;;5010823;28;20117;-72
2023/05/22 02:03:56;;;;;;;13.50;10.57;;;18.10;88.40;;;;;;5058720;28;20109;-73
2023/05/22 02:06:27;;;;;;;15.20;11.27;;;18.10;88.40;;;;;;5064065;28;20066;-72
2023/05/22 02:08:54;;;;;;;11.95;10.07;;;18.10;88.40;;;;;;5071160;28;20449;-71
2023/05/22 02:11:23;;;;;;;13.38;9.38;;;18.10;88.30;;;;;;5072407;28;20033;-71
2023/05/22 02:13:49;;;;;;;12.45;9.35;;;18.10;88.30;;;;;;5077256;28;20458;-71
2023/05/22 02:16:15;;;;;;;13.07;10.02;;;18.20;88.10;;;;;;5074092;28;20112;-72
2023/05/22 02:18:42;;;;;;;12.65;9.63;;;18.20;88.00;;;;;;5083431;28;20487;-72
2023/05/22 02:21:08;;;;;;;12.23;10.15;;;18.20;87.90;;;;;;5071671;28;20108;-71
2023/05/22 02:23:34;;;;;;;12.93;9.13;;;18.20;87.80;;;;;;5071315;28;20726;-71
2023/05/22 02:26:00;;;;;;;13.77;10.85;;;18.10;87.60;;;;;;5071783;28;20523;-70
2023/05/22 02:28:26;;;;;;;13.93;10.40;;;18.10;87.60;;;;;;5071867;28;20036;-70
2023/05/22 02:30:51;;;;;;;12.48;9.73;;;18.10;87.50;;;;;;5078729;28;20020;-70
2023/05/22 02:33:17;;;;;;;14.15;9.95;;;18.10;87.30;;;;;;5083909;28;20522;-71
2023/05/22 02:35:43;;;;;;;12.38;9.35;;;18.10;88.00;;;;;;5091787;28;20028;-68
2023/05/22 02:38:09;;;;;;;14.13;10.00;;;18.20;87.30;;;;;;5079393;28;20089;-70
2023/05/22 02:40:35;;;;;;;12.73;9.63;;;18.10;87.30;;;;;;5071949;28;20513;-70
2023/05/22 02:43:00;;;;;;;12.48;10.38;;;18.10;87.20;;;;;;5071842;28;20605;-70
2023/05/22 02:45:26;;;;;;;15.43;10.30;;;18.10;87.20;;;;;;5073150;28;20021;-69
2023/05/22 02:47:51;;;;;;;13.35;10.30;;;18.00;87.30;;;;;;5083251;28;20364;-69
2023/05/22 02:50:17;;;;;;;15.50;11.48;;;18.00;87.30;;;;;;5079103;28;20017;-69
2023/05/22 02:52:44;;;;;;;14.25;10.82;;;17.90;87.40;;;;;;5086071;28;20391;-69
2023/05/22 02:55:09;;;;;;;14.02;10.57;;;17.90;87.50;;;;;;5075383;28;20108;-68
2023/05/22 02:57:35;;;;;;;13.07;10.20;;;17.90;87.50;;;;;;5076508;28;20166;-68
2023/05/22 03:00:02;;;;;;;12.35;9.57;;;17.90;87.50;;;;;;5070519;28;20506;-69
2023/05/22 03:02:28;;;;;;;13.55;10.00;;;17.90;87.40;;;;;;5078953;28;20028;-68
2023/05/22 03:04:57;;;;;;;12.63;10.25;;;17.90;87.30;;;;;;5085209;28;20020;-69
2023/05/22 03:07:25;;;;;;;13.52;10.27;;;18.00;87.20;;;;;;5071358;28;20108;-69
2023/05/22 03:09:53;;;;;;;11.85;9.55;;;18.00;87.10;;;;;;5070647;28;20387;-69
2023/05/22 03:12:18;;;;;;;14.77;10.35;;;18.00;87.10;;;;;;5074237;28;20033;-70
2023/05/22 03:14:45;;;;;;;13.77;10.18;;;18.00;87.00;;;;;;5071898;28;20035;-70
2023/05/22 03:17:11;;;;;;;14.15;10.55;;;18.00;87.10;;;;;;5071049;28;20028;-69
2023/05/22 03:19:36;;;;;;;13.82;10.52;;;18.00;87.20;;;;;;5074086;28;20028;-69
2023/05/22 03:22:02;;;;;;;11.68;9.68;;;18.00;87.30;;;;;;5073137;28;20017;-69
2023/05/22 03:24:28;;;;;;;12.90;10.43;;;17.90;87.30;;;;;;5070159;28;20016;-70
2023/05/22 03:26:53;;;;;;;13.05;10.23;;;17.90;87.30;;;;;;5069427;28;20074;-69
2023/05/22 03:29:20;;;;;;;12.30;9.25;;;17.90;87.30;;;;;;5069913;28;20040;-69
2023/05/22 03:31:46;;;;;;;13.60;10.45;;;17.90;87.20;;;;;;5081491;28;20028;-69
2023/05/22 03:34:11;;;;;;;14.30;10.85;;;17.90;87.10;;;;;;5072988;28;20031;-69
2023/05/22 03:36:37;;;;;;;13.93;11.57;;;17.80;87.20;;;;;;5070731;28;20024;-69
2023/05/22 03:39:03;;;;;;;13.25;10.70;;;17.80;87.20;;;;;;5069930;28;20024;-69
2023/05/22 03:41:29;;;;;;;15.10;10.52;;;17.80;87.20;;;;;;5070945;28;20031;-69
2023/05/22 03:43:56;;;;;;;12.38;10.18;;;17.80;87.20;;;;;;5070611;28;20009;-70
2023/05/22 03:46:21;;;;;;;14.13;11.57;;;17.70;87.30;;;;;;5071841;28;20382;-70
2023/05/22 03:48:47;;;;;;;12.45;9.68;;;17.80;87.30;;;;;;5067614;28;20016;-71
2023/05/22 03:51:12;;;;;;;13.40;10.27;;;17.80;87.10;;;;;;5069247;28;20671;-69
2023/05/22 03:53:38;;;;;;;12.27;9.93;;;17.80;87.00;;;;;;5069787;28;20086;-69
2023/05/22 03:56:04;;;;;;;15.07;12.05;;;17.70;87.00;;;;;;5069901;28;20067;-69
2023/05/22 03:58:29;;;;;;;17.38;13.30;;;17.60;87.30;;;;;;5069370;28;20032;-70
2023/05/22 04:00:59;;;;;;;15.30;11.75;;;17.50;87.80;;;;;;5075356;28;20414;-69
2023/05/22 04:03:28;;;;;;;14.25;10.82;;;17.50;87.90;;;;;;5070916;28;20024;-70
2023/05/22 04:05:55;;;;;;;12.45;10.10;;;17.50;87.90;;;;;;5079289;28;20028;-71
2023/05/22 04:08:21;;;;;;;16.27;11.48;;;17.50;87.80;;;;;;5069709;28;20020;-69
2023/05/22 04:10:47;;;;;;;17.13;12.98;;;17.50;87.80;;;;;;5070821;28;20442;-69
2023/05/22 04:13:13;;;;;;;15.15;11.32;;;17.50;87.80;;;;;;5068149;28;20024;-68
2023/05/22 04:15:45;;;;;;;12.32;10.23;;;17.50;87.80;;;;;;5071436;28;20514;-68
2023/05/22 04:18:11;;;;;;;13.32;10.35;;;17.50;87.80;;;;;;5070425;28;20032;-69
2023/05/22 04:20:37;;;;;;;14.07;11.48;;;17.50;87.80;;;;;;5071745;28;20028;-72
2023/05/22 04:23:03;;;;;;;15.30;11.90;;;17.40;87.70;;;;;;5078999;28;20091;-71
2023/05/22 04:25:29;;;;;;;14.40;11.23;;;17.40;87.60;;;;;;5071693;28;20074;-73
2023/05/22 04:27:54;;;;;;;13.38;10.77;;;17.40;87.50;;;;;;5070148;28;20025;-72
2023/05/22 04:30:20;;;;;;;14.10;10.50;;;17.40;87.50;;;;;;5070590;28;21030;-70
2023/05/22 04:32:46;;;;;;;14.48;12.00;;;17.40;87.50;;;;;;5078835;28;20023;-70
2023/05/22 04:35:12;;;;;;;14.27;11.85;;;17.30;87.60;;;;;;5068178;28;20510;-70
2023/05/22 04:37:44;;;;;;;11.70;9.93;;;17.30;87.70;;;;;;5083896;28;20035;-70
2023/05/22 04:40:10;;;;;;;11.70;10.23;;;17.20;87.90;;;;;;5056794;28;20111;-70
2023/05/22 04:42:37;;;;;;;10.95;9.02;;;17.20;87.90;;;;;;5072096;28;20098;-71
2023/05/22 04:45:06;;;;;;;11.77;9.88;;;17.30;87.90;;;;;;5073008;28;20012;-70
2023/05/22 04:47:31;;;;;;;12.60;10.63;;;17.30;87.70;;;;;;5062224;28;20167;-70
2023/05/22 04:50:01;;;;;;;11.73;10.13;;;17.30;87.50;;;;;;5067820;28;20095;-72
2023/05/22 04:52:27;;;;;;;12.00;10.43;;;17.40;87.70;;;;;;5072294;28;20028;-70
2023/05/22 04:54:54;;;;;;;11.48;9.65;;;17.40;87.70;;;;;;5069671;28;20028;-70
2023/05/22 04:57:20;;;;;;;10.75;9.65;;;17.40;87.50;;;;;;5073472;28;20032;-70
2023/05/22 04:59:46;;;;;;;10.57;9.38;;;17.50;87.60;;;;;;5069683;28;20013;-71
2023/05/22 05:02:12;;;;;;;9.77;8.77;;;17.50;87.40;;;;;;5070751;28;20468;-71
2023/05/22 05:04:38;;;;;;;10.05;9.05;;;17.60;87.30;;;;;;5074241;28;20027;-71
2023/05/22 05:07:04;;;;;;;10.10;7.82;;;17.70;87.10;;;;;;5070752;28;20017;-70
2023/05/22 05:09:30;;;;;;;9.77;8.73;;;17.90;86.60;;;;;;5068041;28;20082;-68
2023/05/22 05:11:57;;;;;;;11.00;8.63;;;18.30;85.50;;;;;;5072957;28;20024;-71
2023/05/22 05:14:23;;;;;;;12.85;8.73;;;18.40;84.40;;;;;;5068898;28;20032;-70
2023/05/22 05:16:50;;;;;;;11.82;10.60;;;18.10;84.30;;;;;;5076272;28;20078;-69
2023/05/22 05:19:16;;;;;;;10.82;9.45;;;17.90;84.90;;;;;;5066565;28;20199;-69
2023/05/22 05:21:42;;;;;;;27.55;8.70;;;17.60;85.60;;;;;;5069907;28;20013;-70
2023/05/22 05:24:07;;;;;;;22.90;10.50;;;17.50;86.40;;;;;;5068111;28;20082;-68
2023/05/22 05:26:33;;;;;;;35.85;10.65;;;17.30;87.00;;;;;;5067744;28;20545;-71
2023/05/22 05:28:58;;;;;;;13.93;9.90;;;17.20;87.50;;;;;;5063797;28;20095;-69
2023/05/22 05:31:24;;;;;;;10.98;9.05;;;17.10;87.90;;;;;;5069150;28;20016;-71
2023/05/22 05:33:51;;;;;;;13.40;9.13;;;17.10;88.10;;;;;;5071423;28;20188;-70
2023/05/22 05:36:16;;;;;;;12.77;9.02;;;17.10;88.20;;;;;;5071985;28;20760;-69
2023/05/22 05:38:42;;;;;;;18.27;11.77;;;17.20;88.20;;;;;;5070114;28;20036;-71
2023/05/22 05:41:07;;;;;;;12.77;11.48;;;17.10;88.50;;;;;;5070603;28;20556;-69
2023/05/22 05:43:33;;;;;;;20.13;11.32;;;17.10;88.90;;;;;;5072883;28;20516;-70
2023/05/22 05:45:59;;;;;;;24.10;11.93;;;17.10;89.00;;;;;;5074650;28;20093;-70
2023/05/22 05:48:24;;;;;;;26.92;12.57;;;17.00;89.30;;;;;;5073476;28;20536;-71
2023/05/22 05:50:50;;;;;;;13.95;11.35;;;17.00;89.50;;;;;;5074900;28;20056;-71
2023/05/22 05:53:15;;;;;;;32.42;13.10;;;17.00;89.60;;;;;;5074078;28;20082;-70
2023/05/22 05:55:41;;;;;;;12.85;10.85;;;17.00;89.80;;;;;;5075114;28;20029;-68
2023/05/22 05:58:06;;;;;;;30.17;12.25;;;17.00;90.00;;;;;;5072222;28;20020;-69
2023/05/22 06:00:32;;;;;;;18.15;12.18;;;17.00;90.10;;;;;;5071050;28;20028;-68
2023/05/22 06:03:00;;;;;;;13.18;11.43;;;17.10;90.10;;;;;;5074910;28;20081;-68
2023/05/22 06:05:28;;;;;;;16.10;11.00;;;17.10;90.20;;;;;;5068562;28;20107;-70
2023/05/22 06:07:56;;;;;;;20.45;11.48;;;17.10;90.30;;;;;;5069646;28;20039;-70
2023/05/22 06:10:22;;;;;;;17.95;13.52;;;17.20;90.20;;;;;;5073325;28;20077;-69
2023/05/22 06:12:48;;;;;;;20.60;12.70;;;17.30;90.30;;;;;;5069337;28;20033;-69
2023/05/22 06:15:13;;;;;;;16.67;13.93;;;17.30;90.30;;;;;;5069706;28;20032;-70
2023/05/22 06:17:39;;;;;;;15.10;11.68;;;17.40;90.30;;;;;;5072651;28;20113;-70
2023/05/22 06:20:06;;;;;;;15.93;12.25;;;17.40;90.30;;;;;;5070805;28;20040;-69
2023/05/22 06:22:32;;;;;;;13.55;12.05;;;17.40;90.40;;;;;;5064826;28;20681;-69
2023/05/22 06:24:57;;;;;;;16.45;13.63;;;17.50;90.50;;;;;;5069838;28;20024;-70
2023/05/22 06:27:23;;;;;;;14.10;12.60;;;17.50;90.50;;;;;;5065355;28;20036;-69
2023/05/22 06:29:50;;;;;;;14.95;12.95;;;17.50;90.50;;;;;;5066615;28;20068;-70
2023/05/22 06:32:16;;;;;;;17.08;13.30;;;17.60;90.50;;;;;;5066906;28;20490;-70
2023/05/22 06:34:44;;;;;;;16.20;13.95;;;17.80;90.40;;;;;;5067365;28;20063;-69
2023/05/22 06:37:10;;;;;;;15.75;13.73;;;17.90;90.40;;;;;;5067366;28;20078;-70
2023/05/22 06:39:36;;;;;;;15.65;13.93;;;18.00;90.30;;;;;;5069795;28;20062;-69
2023/05/22 06:42:02;;;;;;;15.15;13.55;;;18.10;90.30;;;;;;5070031;28;20105;-70
2023/05/22 06:44:27;;;;;;;15.80;13.57;;;18.10;90.20;;;;;;5070097;28;20024;-70
2023/05/22 06:46:53;;;;;;;13.93;12.40;;;18.20;90.20;;;;;;5069519;28;20514;-73
2023/05/22 06:49:18;;;;;;;16.92;13.98;;;18.40;90.00;;;;;;5070482;28;20172;-70
2023/05/22 06:51:45;;;;;;;15.77;13.85;;;18.70;89.60;;;;;;5070642;28;20094;-71
2023/05/22 06:54:12;;;;;;;13.68;12.00;;;18.90;89.20;;;;;;5069960;28;20028;-69
2023/05/22 06:56:41;;;;;;;14.82;13.23;;;19.10;88.70;;;;;;5070573;28;20035;-69
2023/05/22 06:59:08;;;;;;;14.70;12.90;;;19.30;88.30;;;;;;5071594;28;20047;-70
2023/05/22 07:01:37;;;;;;;15.15;13.13;;;19.70;88.10;;;;;;5067394;28;20032;-70
2023/05/22 07:04:04;;;;;;;14.27;12.77;;;19.90;87.10;;;;;;5069744;28;20028;-71
2023/05/22 07:06:37;;;;;;;15.68;13.05;;;20.10;86.50;;;;;;5064797;28;20422;-69
2023/05/22 07:09:04;;;;;;;13.68;12.15;;;20.30;85.90;;;;;;5065698;28;20056;-69
2023/05/22 07:11:30;;;;;;;14.43;12.80;;;20.50;85.40;;;;;;5069453;28;20028;-70
2023/05/22 07:13:56;;;;;;;14.00;12.50;;;20.70;85.00;;;;;;5069886;28;20045;-69
2023/05/22 07:16:22;;;;;;;14.13;12.65;;;20.90;84.60;;;;;;5069975;28;20667;-69
2023/05/22 07:18:47;;;;;;;12.75;11.43;;;21.00;84.20;;;;;;5067971;28;20021;-69
2023/05/22 07:21:13;;;;;;;13.20;11.88;;;21.20;83.90;;;;;;5069344;28;20016;-69
2023/05/22 07:23:39;;;;;;;14.93;13.32;;;21.30;83.40;;;;;;5078430;28;20075;-69
2023/05/22 07:26:05;;;;;;;14.00;12.45;;;21.40;82.80;;;;;;5079410;28;20066;-69
2023/05/22 07:28:31;;;;;;;14.00;12.50;;;21.50;82.50;;;;;;5070726;28;20025;-69
2023/05/22 07:30:56;;;;;;;13.57;12.18;;;21.60;82.20;;;;;;5069617;28;20528;-69
2023/05/22 07:33:22;;;;;;;14.15;11.77;;;21.70;81.70;;;;;;5076445;28;20074;-69
2023/05/22 07:35:47;;;;;;;14.27;12.82;;;21.90;81.40;;;;;;5070792;28;20438;-69
2023/05/22 07:38:13;;;;;;;15.77;14.18;;;22.00;81.10;;;;;;5075885;28;20020;-69
2023/05/22 07:40:38;;;;;;;14.20;12.18;;;22.10;80.80;;;;;;5065958;28;20034;-69
2023/05/22 07:43:04;;;;;;;13.55;12.07;;;22.10;80.60;;;;;;5067590;28;20025;-69
2023/05/22 07:45:29;;;;;;;13.10;11.45;;;22.20;80.30;;;;;;5068377;28;20028;-69
2023/05/22 07:47:57;;;;;;;11.98;10.77;;;22.20;80.10;;;;;;5070332;28;20035;-69
2023/05/22 07:50:25;;;;;;;14.52;12.85;;;22.40;79.80;;;;;;5072711;28;20103;-70
2023/05/22 07:52:51;;;;;;;12.50;11.20;;;22.50;79.60;;;;;;5071936;28;20029;-69
2023/05/22 07:55:16;;;;;;;12.38;11.10;;;22.60;79.30;;;;;;5067781;28;20514;-67
2023/05/22 07:57:43;;;;;;;13.00;10.65;;;22.70;79.00;;;;;;5068160;28;20016;-68
2023/05/22 08:00:12;;;;;;;13.13;11.82;;;22.80;78.60;;;;;;5068341;28;20450;-69
2023/05/22 08:02:39;;;;;;;12.65;11.32;;;23.00;78.10;;;;;;5069331;28;20020;-69
2023/05/22 08:05:06;;;;;;;13.15;10.88;;;23.00;77.30;;;;;;5071625;28;20017;-69
2023/05/22 08:07:34;;;;;;;12.77;11.45;;;23.10;77.10;;;;;;5071205;28;20020;-69
2023/05/22 08:10:07;;;;;;;14.77;11.75;;;23.20;76.80;;;;;;5067956;28;20032;-68
2023/05/22 08:12:32;;;;;;;14.10;11.57;;;23.30;76.20;;;;;;5066970;28;20035;-68
2023/05/22 08:14:58;;;;;;;11.30;10.10;;;23.40;75.80;;;;;;5065803;28;20626;-70
2023/05/22 08:17:24;;;;;;;11.05;9.95;;;23.60;75.60;;;;;;5068043;28;20082;-69
2023/05/22 08:19:49;;;;;;;11.82;10.48;;;23.70;75.20;;;;;;5072732;28;20375;-71
2023/05/22 08:22:15;;;;;;;12.15;10.95;;;23.80;74.80;;;;;;5071736;28;20115;-71
2023/05/22 08:24:40;;;;;;;11.70;10.07;;;23.90;74.40;;;;;;5069851;28;20036;-69
2023/05/22 08:27:06;;;;;;;11.35;10.07;;;23.90;74.10;;;;;;5070160;28;20078;-70
2023/05/22 08:29:32;;;;;;;12.63;11.32;;;24.00;73.70;;;;;;5066728;28;20106;-71
2023/05/22 08:31:57;;;;;;;11.80;10.60;;;24.10;73.30;;;;;;5067581;28;20028;-69
2023/05/22 08:34:23;;;;;;;13.57;11.90;;;24.10;73.00;;;;;;5068542;28;20514;-69
2023/05/22 08:36:49;;;;;;;12.07;10.77;;;24.20;72.60;;;;;;5069157;28;20031;-69
2023/05/22 08:39:15;;;;;;;11.48;10.30;;;24.30;72.50;;;;;;5070124;28;20025;-70
2023/05/22 08:41:42;;;;;;;11.73;10.52;;;24.40;72.30;;;;;;5071769;28;20032;-69
2023/05/22 08:44:09;;;;;;;11.13;10.05;;;24.50;72.00;;;;;;5070640;28;20044;-69
2023/05/22 08:46:36;;;;;;;13.13;10.95;;;24.60;71.60;;;;;;5070657;28;20025;-69
2023/05/22 08:49:04;;;;;;;10.40;9.30;;;24.60;71.30;;;;;;5068082;28;20474;-68
2023/05/22 08:51:32;;;;;;;11.85;10.27;;;24.80;71.00;;;;;;5071182;28;20032;-68
2023/05/22 08:53:58;;;;;;;10.80;9.68;;;24.80;70.90;;;;;;5074721;28;20099;-68
2023/05/22 08:56:25;;;;;;;10.82;9.57;;;24.80;70.00;;;;;;5068083;28;20449;-69
2023/05/22 08:58:51;;;;;;;11.75;10.10;;;24.90;69.70;;;;;;5067497;28;20051;-68
2023/05/22 09:01:17;;;;;;;11.00;9.63;;;24.90;69.40;;;;;;5068604;28;20036;-69
2023/05/22 09:03:48;;;;;;;12.52;10.55;;;24.80;69.10;;;;;;5068346;28;20024;-68
2023/05/22 09:06:13;;;;;;;10.47;9.37;;;24.70;67.50;;;;;;5064373;28;20021;-70
2023/05/22 09:08:41;;;;;;;13.18;10.07;;;24.70;66.80;;;;;;5067180;28;20162;-68
2023/05/22 09:11:07;;;;;;;11.07;9.75;;;24.80;66.80;;;;;;5066932;28;20068;-69
2023/05/22 09:13:32;;;;;;;9.82;8.82;;;25.00;67.20;;;;;;5067269;28;20095;-68
2023/05/22 09:15:59;;;;;;;10.90;9.15;;;25.20;66.90;;;;;;5069636;28;20386;-69
2023/05/22 09:18:28;;;;;;;10.48;8.85;;;25.30;66.20;;;;;;5070724;28;20020;-69
2023/05/22 09:20:56;;;;;;;10.27;9.05;;;25.30;65.80;;;;;;5067813;28;20025;-70
2023/05/22 09:23:24;;;;;;;10.20;8.85;;;25.20;65.20;;;;;;5070898;28;20382;-71
2023/05/22 09:25:54;;;;;;;9.20;8.30;;;25.20;65.30;;;;;;5070215;28;20017;-70
2023/05/22 09:28:20;;;;;;;9.10;8.20;;;25.40;65.30;;;;;;5074493;28;20032;-70
2023/05/22 09:30:50;;;;;;;9.15;8.13;;;25.70;65.00;;;;;;5074294;28;20024;-69
2023/05/22 09:33:16;;;;;;;8.52;7.63;;;25.80;64.50;;;;;;5075997;28;20532;-69
2023/05/22 09:35:42;;;;;;;8.90;6.75;;;26.00;63.50;;;;;;5075280;28;20046;-71
2023/05/22 09:38:09;;;;;;;7.82;7.00;;;26.10;62.70;;;;;;5071725;28;20033;-70
2023/05/22 09:40:39;;;;;;;7.88;6.70;;;26.30;61.60;;;;;;5071759;28;20048;-71
2023/05/22 09:43:10;;;;;;;7.68;6.60;;;26.30;60.40;;;;;;5076349;28;20040;-70
2023/05/22 09:45:37;;;;;;;8.13;7.10;;;26.40;59.70;;;;;;5075922;28;20118;-70
2023/05/22 09:48:04;;;;;;;7.25;6.00;;;26.50;58.90;;;;;;5074673;28;20539;-70
2023/05/22 09:50:34;;;;;;;7.20;6.50;;;26.60;58.90;;;;;;5077470;28;20154;-69
2023/05/22 09:53:04;;;;;;;7.97;7.15;;;26.80;58.70;;;;;;5071932;28;20028;-69
2023/05/22 09:55:30;;;;;;;10.35;7.82;;;27.00;58.60;;;;;;5073055;28;20032;-69
2023/05/22 09:57:57;;;;;;;7.97;7.18;;;26.90;58.20;;;;;;5071234;28;20032;-68
2023/05/22 10:00:24;;;;;;;9.30;8.40;;;26.80;58.80;;;;;;5073754;28;20023;-69
2023/05/22 10:02:57;;;;;;;9.38;8.38;;;26.70;59.20;;;;;;5074233;28;20139;-68
2023/05/22 10:05:29;;;;;;;9.75;8.00;;;26.50;59.70;;;;;;5075943;28;20073;-69
2023/05/22 10:08:01;;;;;;;8.95;8.02;;;26.30;60.20;;;;;;5069271;28;20026;-69
2023/05/22 10:10:26;;;;;;;;;;;26.30;60.40;;;;;;5073403;28;20020;-69
2023/05/22 10:13:03;;;;;;;8.68;7.75;;;26.20;60.60;;;;;;5074748;28;19915;-68
2023/05/22 10:15:29;;;;;;;8.85;7.82;;;26.20;60.50;;;;;;5066547;28;20083;-69
2023/05/22 10:17:56;;;;;;;10.90;7.40;;;26.30;60.30;;;;;;5075369;28;20036;-69
2023/05/22 10:20:25;;;;;;;9.18;8.27;;;26.40;59.90;;;;;;5076813;28;20024;-68
2023/05/22 10:22:52;;;;;;;9.40;8.38;;;26.50;59.50;;;;;;5071802;28;20025;-68
2023/05/22 10:25:17;;;;;;;8.10;7.30;;;26.50;59.10;;;;;;5073785;28;20062;-69
2023/05/22 10:27:44;;;;;;;8.55;7.65;;;26.60;59.10;;;;;;5074772;28;20036;-69
2023/05/22 10:30:09;;;;;;;9.60;8.60;;;26.80;58.90;;;;;;5074417;28;20028;-69
2023/05/22 10:32:41;;;;;;;9.82;8.85;;;26.80;58.10;;;;;;5070007;28;20032;-68
2023/05/22 10:35:26;;;;;;;8.20;7.40;;;26.70;57.80;;;;;;5074216;28;20023;-68
2023/05/22 10:38:01;;;;;;;10.80;9.50;;;26.90;58.30;;;;;;5066796;28;20025;-67
2023/05/22 10:40:31;;;;;;;9.52;8.52;;;26.80;56.40;;;;;;5072405;28;20021;-66
2023/05/22 10:43:01;;;;;;;8.88;7.97;;;26.60;57.00;;;;;;5066400;28;20029;-70
2023/05/22 10:45:30;;;;;;;8.18;7.25;;;26.70;57.40;;;;;;5064301;28;20031;-69
2023/05/22 10:48:03;;;;;;;8.82;7.93;;;26.90;57.30;;;;;;5077151;28;20040;-68
2023/05/22 10:50:29;;;;;;;9.20;8.13;;;27.00;57.10;;;;;;5070698;28;20055;-68
2023/05/22 10:53:18;;;;;;;8.07;7.28;;;27.10;56.70;;;;;;5073290;28;20056;-69
2023/05/22 10:55:48;;;;;;;7.63;6.78;;;27.20;56.70;;;;;;5071182;28;20039;-69
2023/05/22 10:58:14;;;;;;;7.40;6.70;;;27.20;56.80;;;;;;5070931;28;20103;-69
2023/05/22 11:00:40;;;;;;;7.95;7.13;;;27.30;56.80;;;;;;5066351;28;20478;-68
2023/05/22 11:03:06;;;;;;;9.27;7.53;;;27.20;56.90;;;;;;5071338;28;20036;-69
2023/05/22 11:05:33;;;;;;;8.77;7.15;;;27.20;57.00;;;;;;5070682;28;20024;-68
2023/05/22 11:08:31;;;;;;;8.18;7.38;;;27.30;56.90;;;;;;5063734;28;20619;-68
2023/05/22 11:11:00;;;;;;;29.15;26.23;;;27.30;57.00;;;;;;5070674;28;20032;-68
2023/05/22 11:13:26;;;;;;;14.73;13.23;;;27.40;56.80;;;;;;5073680;28;20084;-70
2023/05/22 11:15:55;;;;;;;11.13;9.75;;;27.60;56.50;;;;;;5071058;28;20031;-68
2023/05/22 11:18:20;;;;;;;10.10;8.30;;;27.70;55.80;;;;;;5070880;28;20426;-68
2023/05/22 11:20:46;;;;;;;8.27;7.45;;;27.60;56.10;;;;;;5070532;28;20029;-69
2023/05/22 11:23:12;;;;;;;7.80;7.00;;;27.60;56.20;;;;;;5063903;28;20028;-70
2023/05/22 11:25:39;;;;;;;8.65;7.75;;;27.50;56.00;;;;;;5071029;28;20028;-70
2023/05/22 11:28:06;;;;;;;8.40;6.63;;;27.50;56.00;;;;;;5068024;28;20154;-68
2023/05/22 11:30:33;;;;;;;7.57;6.88;;;27.70;55.90;;;;;;5067688;28;20449;-69
2023/05/22 11:33:00;;;;;;;8.65;7.60;;;27.80;55.80;;;;;;5068186;28;20020;-69
2023/05/22 11:35:26;;;;;;;7.20;6.50;;;27.80;55.40;;;;;;5068936;28;20056;-68
2023/05/22 11:37:53;;;;;;;9.20;7.22;;;27.80;55.20;;;;;;5069325;28;20028;-69
2023/05/22 11:40:23;;;;;;;8.02;7.22;;;27.80;55.40;;;;;;5068713;28;20458;-69
2023/05/22 11:42:48;;;;;;;7.82;7.03;;;27.80;55.20;;;;;;5067495;28;20475;-70
2023/05/22 11:45:14;;;;;;;8.23;7.43;;;27.70;55.40;;;;;;5068781;28;20028;-69
2023/05/22 11:47:40;;;;;;;7.88;7.00;;;27.70;55.60;;;;;;5068043;28;20082;-68
2023/05/22 11:50:14;;;;;;;8.18;7.38;;;27.70;55.60;;;;;;5068562;28;20028;-68
2023/05/22 11:52:41;;;;;;;10.40;7.60;;;27.50;55.30;;;;;;5068478;28;20031;-68
2023/05/22 11:55:08;;;;;;;7.82;7.00;;;27.40;55.90;;;;;;5067531;28;20021;-69
2023/05/22 11:57:35;;;;;;;8.02;7.20;;;27.30;56.20;;;;;;5066679;28;20032;-68
2023/05/22 12:00:02;;;;;;;7.60;6.90;;;27.40;56.20;;;;;;5062569;28;20082;-68
2023/05/22 12:02:29;;;;;;;8.38;7.47;;;27.40;56.50;;;;;;5068841;28;20104;-68
2023/05/22 12:04:55;;;;;;;9.60;7.40;;;27.30;56.60;;;;;;5067552;28;20028;-67
2023/05/22 12:07:21;;;;;;;7.93;7.13;;;27.30;56.70;;;;;;5070757;28;20470;-69
2023/05/22 12:09:48;;;;;;;8.18;7.25;;;27.30;57.00;;;;;;5072001;28;20032;-68
2023/05/22 12:12:16;;;;;;;8.45;7.50;;;27.30;56.90;;;;;;5074103;28;20123;-68
2023/05/22 12:14:45;;;;;;;8.88;7.97;;;27.40;56.50;;;;;;5075827;28;20028;-68
2023/05/22 12:17:15;;;;;;;8.63;7.43;;;27.20;56.30;;;;;;5066672;28;20037;-68
2023/05/22 12:19:42;;;;;;;8.25;7.35;;;27.20;56.80;;;;;;5069332;28;20016;-69
2023/05/22 12:22:09;;;;;;;8.10;7.30;;;27.20;56.80;;;;;;5070476;28;20020;-68
2023/05/22 12:24:41;;;;;;;8.25;7.45;;;27.20;56.60;;;;;;5067202;28;20491;-68
2023/05/22 12:27:11;;;;;;;7.82;7.10;;;27.20;56.70;;;;;;5073074;28;20400;-68
2023/05/22 12:29:38;;;;;;;8.32;7.50;;;27.20;56.80;;;;;;5074969;28;20027;-70
2023/05/22 12:32:06;;;;;;;8.35;7.43;;;27.20;56.70;;;;;;5066295;28;20031;-70
2023/05/22 12:34:33;;;;;;;11.40;8.02;;;27.20;56.80;;;;;;5073265;28;20111;-70